createdAt,value
2023-08-23T00:02:03.397Z,99.90
2023-08-23T00:04:35.561Z,99.90
2023-08-23T00:07:02.663Z,99.90
2023-08-23T00:09:29.518Z,99.90
2023-08-23T00:11:56.241Z,99.90
2023-08-23T00:14:22.912Z,99.90
2023-08-23T00:16:50.777Z,99.90
2023-08-23T00:19:17.794Z,99.90
2023-08-23T00:21:44.874Z,99.90
2023-08-23T00:24:11.594Z,99.90
2023-08-23T00:26:39.558Z,99.90
2023-08-23T00:29:06.303Z,99.90
2023-08-23T00:31:32.989Z,99.90
2023-08-23T00:33:59.705Z,99.90
2023-08-23T00:36:26.557Z,99.90
2023-08-23T00:38:53.356Z,99.90
2023-08-23T00:41:20.089Z,99.90
2023-08-23T00:43:47.244Z,99.90
2023-08-23T00:46:14.116Z,99.90
2023-08-23T00:48:40.933Z,99.90
2023-08-23T00:51:07.669Z,99.90
2023-08-23T00:53:34.339Z,99.90
2023-08-23T00:56:01.321Z,99.90
2023-08-23T00:58:29.666Z,99.90
2023-08-23T01:00:56.523Z,99.90
2023-08-23T01:03:23.278Z,99.90
2023-08-23T01:05:50.003Z,99.90
2023-08-23T01:08:17.423Z,99.90
2023-08-23T01:10:44.108Z,99.90
2023-08-23T01:13:10.767Z,99.90
2023-08-23T01:15:37.424Z,99.90
2023-08-23T01:18:05.340Z,99.90
2023-08-23T01:20:32.044Z,99.90
2023-08-23T01:22:58.728Z,99.90
2023-08-23T01:25:25.388Z,99.90
2023-08-23T01:27:56.975Z,99.90
2023-08-23T01:30:26.011Z,99.90
2023-08-23T01:32:52.804Z,99.90
2023-08-23T01:35:19.689Z,99.90
2023-08-23T01:37:47.811Z,99.90
2023-08-23T01:40:14.565Z,99.90
2023-08-23T01:42:41.448Z,99.90
2023-08-23T01:45:08.584Z,99.90
2023-08-23T01:47:36.590Z,99.90
2023-08-23T01:50:03.346Z,99.90
2023-08-23T01:52:30.029Z,99.90
2023-08-23T01:54:56.809Z,99.90
2023-08-23T01:57:24.795Z,99.90
2023-08-23T01:59:56.299Z,99.90
2023-08-23T02:02:23.220Z,99.90
2023-08-23T02:04:50.341Z,99.90
2023-08-23T02:07:18.345Z,99.90
2023-08-23T02:09:45.825Z,99.90
2023-08-23T02:12:12.512Z,99.90
2023-08-23T02:14:39.618Z,99.90
2023-08-23T02:17:07.459Z,99.90
2023-08-23T02:19:34.165Z,99.90
2023-08-23T02:22:00.852Z,99.90
2023-08-23T02:24:27.560Z,99.90
2023-08-23T02:26:55.443Z,99.90
2023-08-23T02:29:23.037Z,99.90
2023-08-23T02:31:49.702Z,99.90
2023-08-23T02:34:16.456Z,99.90
2023-08-23T02:36:43.604Z,99.90
2023-08-23T02:39:10.331Z,99.90
2023-08-23T02:41:37.045Z,99.90
2023-08-23T02:44:04.109Z,99.90
2023-08-23T02:46:31.088Z,99.90
2023-08-23T02:48:57.799Z,99.90
2023-08-23T02:51:24.529Z,99.90
2023-08-23T02:53:51.260Z,99.90
2023-08-23T02:56:17.984Z,99.90
2023-08-23T02:58:44.869Z,99.90
2023-08-23T03:01:12.597Z,99.90
2023-08-23T03:03:39.286Z,99.90
2023-08-23T03:06:05.929Z,99.90
2023-08-23T03:08:52.730Z,99.90
2023-08-23T03:11:21.437Z,99.90
2023-08-23T03:13:48.101Z,99.90
2023-08-23T03:16:15.203Z,99.90
2023-08-23T03:18:43.297Z,99.90
2023-08-23T03:21:10.574Z,99.90
2023-08-23T03:23:40.824Z,99.90
2023-08-23T03:26:08.301Z,99.90
2023-08-23T03:28:38.634Z,99.90
2023-08-23T03:31:09.232Z,99.90
2023-08-23T03:33:36.248Z,99.90
2023-08-23T03:36:03.144Z,99.90
2023-08-23T03:38:30.978Z,99.90
2023-08-23T03:40:57.669Z,99.90
2023-08-23T03:43:24.386Z,99.90
2023-08-23T03:45:53.303Z,99.90
2023-08-23T03:48:20.345Z,99.90
2023-08-23T03:50:48.475Z,99.90
2023-08-23T03:53:15.333Z,99.90
2023-08-23T03:55:42.089Z,99.90
2023-08-23T03:58:10.969Z,99.90
2023-08-23T04:00:37.838Z,99.90
2023-08-23T04:03:07.672Z,99.90
2023-08-23T04:05:34.517Z,99.90
2023-08-23T04:08:06.132Z,99.90
2023-08-23T04:10:33.484Z,99.90
2023-08-23T04:13:00.212Z,99.90
2023-08-23T04:15:26.869Z,99.90
2023-08-23T04:17:53.878Z,99.90
2023-08-23T04:20:20.714Z,99.90
2023-08-23T04:22:47.440Z,99.90
2023-08-23T04:25:14.111Z,99.90
2023-08-23T04:27:41.107Z,99.90
2023-08-23T04:30:08.835Z,99.90
2023-08-23T04:32:38.890Z,99.90
2023-08-23T04:35:05.608Z,99.90
2023-08-23T04:37:32.431Z,99.90
2023-08-23T04:39:59.260Z,99.90
2023-08-23T04:42:25.984Z,99.90
2023-08-23T04:44:52.756Z,99.90
2023-08-23T04:47:24.041Z,99.90
2023-08-23T04:49:51.144Z,99.90
2023-08-23T04:52:17.926Z,99.90
2023-08-23T04:54:44.973Z,99.90
2023-08-23T04:57:13.995Z,99.90
2023-08-23T04:59:40.704Z,99.90
2023-08-23T05:02:07.711Z,99.90
2023-08-23T05:04:34.548Z,99.90
2023-08-23T05:07:01.460Z,99.90
2023-08-23T05:09:30.158Z,99.90
2023-08-23T05:11:56.938Z,99.90
2023-08-23T05:14:23.714Z,99.90
2023-08-23T05:16:50.638Z,99.90
2023-08-23T05:19:17.346Z,99.90
2023-08-23T05:21:44.339Z,99.90
2023-08-23T05:24:11.142Z,99.90
2023-08-23T05:26:40.575Z,99.90
2023-08-23T05:29:07.324Z,99.90
2023-08-23T05:31:34.063Z,99.90
2023-08-23T05:34:00.986Z,99.90
2023-08-23T05:36:28.334Z,99.90
2023-08-23T05:38:55.009Z,99.90
2023-08-23T05:41:22.672Z,99.90
2023-08-23T05:43:49.932Z,99.90
2023-08-23T05:46:17.063Z,99.90
2023-08-23T05:48:45.665Z,99.90
2023-08-23T05:51:12.915Z,99.90
2023-08-23T05:53:39.602Z,99.90
2023-08-23T05:56:06.279Z,99.90
2023-08-23T05:58:33.265Z,99.90
2023-08-23T06:01:00.044Z,99.90
2023-08-23T06:03:27.281Z,99.90
2023-08-23T06:05:55.056Z,99.90
2023-08-23T06:08:21.872Z,99.90
2023-08-23T06:10:48.690Z,99.90
2023-08-23T06:13:15.457Z,99.90
2023-08-23T06:15:42.104Z,99.90
2023-08-23T06:18:08.926Z,99.90
2023-08-23T06:20:35.897Z,99.90
2023-08-23T06:23:02.548Z,99.90
2023-08-23T06:25:29.163Z,99.90
2023-08-23T06:27:56.018Z,99.90
2023-08-23T06:30:22.677Z,99.90
2023-08-23T06:32:49.323Z,99.90
2023-08-23T06:35:16.097Z,99.90
2023-08-23T06:37:48.144Z,99.90
2023-08-23T06:40:15.369Z,99.90
2023-08-23T06:42:42.079Z,99.90
2023-08-23T06:45:09.453Z,99.90
2023-08-23T06:47:38.505Z,99.90
2023-08-23T06:50:09.098Z,99.90
2023-08-23T06:52:37.760Z,99.90
2023-08-23T06:55:04.688Z,99.90
2023-08-23T06:57:32.611Z,99.90
2023-08-23T06:59:59.307Z,99.90
2023-08-23T07:02:25.987Z,99.90
2023-08-23T07:04:53.382Z,99.90
2023-08-23T07:07:22.427Z,99.90
2023-08-23T07:09:49.082Z,99.90
2023-08-23T07:12:15.755Z,99.90
2023-08-23T07:14:42.498Z,99.90
2023-08-23T07:17:10.355Z,99.90
2023-08-23T07:19:37.134Z,99.90
2023-08-23T07:22:04.237Z,99.90
2023-08-23T07:24:30.871Z,99.90
2023-08-23T07:26:57.783Z,99.90
2023-08-23T07:29:24.417Z,99.90
2023-08-23T07:31:51.065Z,99.90
2023-08-23T07:34:18.526Z,99.90
2023-08-23T07:37:05.012Z,99.90
2023-08-23T07:39:31.680Z,99.90
2023-08-23T07:41:58.289Z,99.90
2023-08-23T07:44:26.678Z,99.90
2023-08-23T07:46:53.674Z,99.90
2023-08-23T07:49:20.347Z,99.90
2023-08-23T07:51:47.065Z,99.90
2023-08-23T07:54:13.744Z,99.90
2023-08-23T07:56:59.471Z,99.90
2023-08-23T07:59:26.145Z,99.90
2023-08-23T08:01:52.826Z,99.90
2023-08-23T08:04:19.580Z,99.90
2023-08-23T08:06:51.454Z,99.90
2023-08-23T08:09:18.083Z,99.90
2023-08-23T08:11:44.719Z,99.90
2023-08-23T08:14:11.363Z,99.90
2023-08-23T08:16:39.163Z,99.90
2023-08-23T08:19:05.882Z,99.90
2023-08-23T08:21:32.634Z,99.90
2023-08-23T08:24:00.153Z,99.90
2023-08-23T08:26:27.052Z,99.90
2023-08-23T08:28:53.810Z,99.90
2023-08-23T08:31:20.453Z,99.90
2023-08-23T08:33:48.094Z,99.90
2023-08-23T08:36:14.902Z,99.90
2023-08-23T08:39:02.192Z,99.90
2023-08-23T08:41:28.842Z,99.90
2023-08-23T08:43:55.494Z,99.90
2023-08-23T08:46:22.181Z,99.90
2023-08-23T08:48:48.888Z,99.90
2023-08-23T08:51:20.625Z,99.90
2023-08-23T08:53:47.325Z,99.90
2023-08-23T08:56:13.948Z,99.90
2023-08-23T08:58:41.882Z,99.90
2023-08-23T09:01:08.644Z,99.90
2023-08-23T09:03:35.484Z,99.90
2023-08-23T09:06:02.364Z,99.90
2023-08-23T09:08:31.095Z,99.90
2023-08-23T09:10:57.723Z,99.90
2023-08-23T09:13:24.464Z,99.90
2023-08-23T09:15:51.109Z,99.90
2023-08-23T09:18:22.305Z,99.90
2023-08-23T09:20:48.986Z,99.90
2023-08-23T09:23:16.086Z,99.90
2023-08-23T09:25:42.790Z,99.90
2023-08-23T09:28:28.694Z,99.90
2023-08-23T09:30:55.769Z,99.90
2023-08-23T09:33:22.450Z,99.90
2023-08-23T09:35:49.676Z,99.90
2023-08-23T09:38:17.533Z,99.90
2023-08-23T09:40:44.209Z,99.90
2023-08-23T09:43:10.948Z,99.90
2023-08-23T09:45:37.664Z,99.90
2023-08-23T09:48:04.644Z,99.90
2023-08-23T09:50:32.212Z,99.90
2023-08-23T09:52:59.019Z,99.90
2023-08-23T09:55:26.113Z,99.90
2023-08-23T09:57:52.929Z,99.90
2023-08-23T10:00:19.903Z,99.90
2023-08-23T10:02:47.583Z,99.90
2023-08-23T10:05:14.467Z,99.90
2023-08-23T10:07:42.555Z,99.90
2023-08-23T10:10:09.481Z,99.90
2023-08-23T10:12:36.132Z,99.90
2023-08-23T10:15:02.899Z,99.90
2023-08-23T10:17:30.753Z,99.90
2023-08-23T10:19:57.413Z,99.90
2023-08-23T10:22:24.096Z,99.90
2023-08-23T10:24:50.748Z,99.90
2023-08-23T10:27:36.761Z,99.90
2023-08-23T10:30:19.396Z,99.90
2023-08-23T10:32:47.705Z,99.90
2023-08-23T10:35:14.342Z,99.90
2023-08-23T10:37:41.431Z,99.90
2023-08-23T10:40:08.089Z,99.90
2023-08-23T10:42:34.742Z,99.90
2023-08-23T10:45:01.626Z,99.90
2023-08-23T10:47:28.464Z,99.90
2023-08-23T10:49:55.126Z,99.90
2023-08-23T10:52:22.486Z,99.90
2023-08-23T10:54:49.155Z,99.90
2023-08-23T10:57:16.112Z,99.90
2023-08-23T10:59:42.748Z,99.90
2023-08-23T11:02:09.510Z,99.90
2023-08-23T11:04:36.254Z,99.90
2023-08-23T11:07:04.157Z,99.90
2023-08-23T11:09:31.145Z,99.90
2023-08-23T11:11:57.845Z,99.90
2023-08-23T11:14:24.559Z,99.90
2023-08-23T11:16:51.486Z,99.70
2023-08-23T11:19:18.134Z,98.50
2023-08-23T11:21:44.885Z,98.50
2023-08-23T11:24:11.565Z,98.90
2023-08-23T11:26:40.416Z,97.20
2023-08-23T11:29:07.090Z,96.30
2023-08-23T11:31:33.831Z,95.00
2023-08-23T11:34:00.506Z,94.80
2023-08-23T11:36:28.486Z,95.20
2023-08-23T11:38:55.125Z,93.90
2023-08-23T11:41:21.782Z,93.90
2023-08-23T11:43:48.415Z,93.90
2023-08-23T11:46:15.280Z,92.40
2023-08-23T11:48:42.012Z,91.20
2023-08-23T11:51:08.723Z,92.40
2023-08-23T11:53:35.386Z,90.90
2023-08-23T11:56:02.050Z,91.40
2023-08-23T11:58:30.910Z,88.80
2023-08-23T12:00:57.573Z,90.50
2023-08-23T12:03:24.241Z,85.00
2023-08-23T12:05:50.913Z,90.10
2023-08-23T12:08:36.663Z,85.80
2023-08-23T12:11:03.325Z,87.70
2023-08-23T12:13:30.002Z,89.70
2023-08-23T12:15:56.682Z,85.30
2023-08-23T12:18:24.580Z,82.20
2023-08-23T12:20:51.286Z,81.90
2023-08-23T12:23:17.996Z,80.20
2023-08-23T12:25:44.616Z,80.90
2023-08-23T12:28:11.796Z,84.70
2023-08-23T12:30:39.168Z,81.00
2023-08-23T12:33:06.584Z,81.80
2023-08-23T12:35:33.365Z,79.40
2023-08-23T12:38:01.309Z,80.20
2023-08-23T12:40:27.989Z,81.30
2023-08-23T12:42:54.637Z,83.10
2023-08-23T12:45:21.312Z,79.70
2023-08-23T12:47:50.540Z,79.00
2023-08-23T12:50:17.470Z,78.90
2023-08-23T12:52:44.111Z,78.80
2023-08-23T12:55:10.816Z,79.00
2023-08-23T12:57:38.615Z,79.10
2023-08-23T13:00:22.911Z,81.50
2023-08-23T13:02:53.370Z,77.80
2023-08-23T13:05:20.044Z,79.80
2023-08-23T13:07:47.946Z,82.10
2023-08-23T13:10:14.867Z,80.00
2023-08-23T13:12:41.650Z,79.00
2023-08-23T13:15:08.561Z,79.60
2023-08-23T13:17:35.775Z,80.60
2023-08-23T13:20:02.422Z,80.20
2023-08-23T13:22:29.074Z,79.60
2023-08-23T13:24:55.710Z,81.30
2023-08-23T13:27:23.671Z,79.70
2023-08-23T13:29:50.302Z,80.20
2023-08-23T13:32:26.723Z,81.70
2023-08-23T13:34:54.569Z,81.00
2023-08-23T13:37:22.454Z,81.50
2023-08-23T13:39:49.080Z,80.60
2023-08-23T13:42:15.711Z,81.30
2023-08-23T13:44:42.420Z,81.10
2023-08-23T13:47:11.308Z,80.70
2023-08-23T13:49:37.995Z,79.90
2023-08-23T13:52:04.921Z,80.30
2023-08-23T13:54:31.588Z,80.60
2023-08-23T13:57:01.447Z,80.20
2023-08-23T13:59:28.250Z,79.50
2023-08-23T14:01:54.907Z,79.20
2023-08-23T14:04:22.708Z,78.50
2023-08-23T14:07:08.427Z,79.10
2023-08-23T14:09:35.106Z,78.70
2023-08-23T14:12:01.701Z,78.60
2023-08-23T14:14:28.364Z,77.60
2023-08-23T14:16:56.200Z,79.70
2023-08-23T14:19:22.848Z,78.30
2023-08-23T14:21:49.561Z,78.30
2023-08-23T14:24:16.629Z,79.50
2023-08-23T14:26:44.480Z,80.20
2023-08-23T14:29:11.114Z,77.70
2023-08-23T14:31:37.791Z,76.60
2023-08-23T14:34:04.447Z,78.40
2023-08-23T14:36:31.378Z,76.90
2023-08-23T14:39:00.322Z,77.10
2023-08-23T14:41:27.489Z,77.00
2023-08-23T14:43:54.201Z,77.10
2023-08-23T14:46:20.925Z,76.20
2023-08-23T14:48:47.705Z,77.30
2023-08-23T14:51:14.375Z,79.70
2023-08-23T14:53:41.024Z,77.90
2023-08-23T14:56:07.689Z,77.70
2023-08-23T14:58:36.522Z,77.10
2023-08-23T15:01:03.186Z,77.90
2023-08-23T15:03:29.982Z,78.10
2023-08-23T15:05:56.915Z,76.10
2023-08-23T15:08:29.110Z,77.30
2023-08-23T15:10:55.839Z,76.00
2023-08-23T15:13:22.517Z,77.40
2023-08-23T15:15:49.191Z,77.10
2023-08-23T15:18:18.076Z,77.90
2023-08-23T15:20:44.760Z,76.70
2023-08-23T15:23:11.407Z,76.50
2023-08-23T15:25:38.062Z,77.00
2023-08-23T15:28:25.682Z,76.30
2023-08-23T15:30:52.408Z,76.10
2023-08-23T15:33:19.439Z,75.80
2023-08-23T15:35:46.108Z,76.00
2023-08-23T15:38:13.980Z,75.80
2023-08-23T15:40:40.742Z,76.70
2023-08-23T15:43:07.399Z,76.20
2023-08-23T15:45:34.105Z,77.80
2023-08-23T15:48:01.404Z,75.80
2023-08-23T15:50:28.319Z,76.50
2023-08-23T15:52:55.197Z,76.10
2023-08-23T15:55:21.878Z,75.70
2023-08-23T15:57:49.961Z,76.00
2023-08-23T16:00:17.840Z,75.80
2023-08-23T16:02:48.386Z,75.80
2023-08-23T16:05:15.118Z,76.50
2023-08-23T16:07:41.937Z,77.10
2023-08-23T16:10:10.827Z,77.60
2023-08-23T16:12:37.574Z,78.60
2023-08-23T16:15:04.792Z,79.00
2023-08-23T16:17:31.790Z,79.10
2023-08-23T16:19:58.506Z,80.20
2023-08-23T16:22:26.954Z,80.80
2023-08-23T16:24:53.613Z,82.30
2023-08-23T16:27:21.277Z,81.90
2023-08-23T16:29:47.912Z,81.70
2023-08-23T16:32:14.590Z,83.40
2023-08-23T16:34:41.311Z,84.70
2023-08-23T16:37:08.106Z,83.90
2023-08-23T16:39:34.719Z,83.80
2023-08-23T16:42:01.380Z,84.50
2023-08-23T16:44:28.054Z,84.00
2023-08-23T16:46:57.667Z,84.00
2023-08-23T16:49:24.453Z,84.90
2023-08-23T16:51:51.450Z,84.40
2023-08-23T16:54:18.684Z,86.50
2023-08-23T16:57:05.338Z,85.40
2023-08-23T16:59:32.086Z,87.60
2023-08-23T17:01:58.733Z,87.00
2023-08-23T17:04:25.523Z,87.50
2023-08-23T17:06:54.445Z,87.60
2023-08-23T17:09:21.152Z,88.60
2023-08-23T17:11:47.917Z,88.50
2023-08-23T17:14:14.592Z,90.00
2023-08-23T17:16:46.468Z,89.10
2023-08-23T17:19:13.958Z,90.00
2023-08-23T17:21:41.281Z,90.00
2023-08-23T17:24:07.990Z,90.30
2023-08-23T17:26:34.849Z,90.20
2023-08-23T17:29:01.505Z,90.40
2023-08-23T17:31:28.187Z,90.40
2023-08-23T17:33:54.933Z,90.90
2023-08-23T17:36:21.588Z,90.50
2023-08-23T17:38:48.242Z,90.90
2023-08-23T17:41:14.926Z,91.10
2023-08-23T17:43:41.766Z,91.40
2023-08-23T17:46:09.413Z,91.80
2023-08-23T17:48:36.056Z,91.90
2023-08-23T17:51:02.753Z,93.20
2023-08-23T17:53:30.259Z,94.40
2023-08-23T17:55:56.882Z,95.40
2023-08-23T17:58:24.618Z,96.00
2023-08-23T18:00:51.325Z,96.30
2023-08-23T18:03:18.180Z,96.60
2023-08-23T18:05:44.905Z,96.70
2023-08-23T18:08:13.163Z,97.50
2023-08-23T18:10:39.813Z,98.20
2023-08-23T18:13:06.461Z,98.70
2023-08-23T18:15:35.193Z,99.70
2023-08-23T18:18:03.368Z,99.90
2023-08-23T18:20:30.636Z,99.90
2023-08-23T18:22:57.287Z,99.90
2023-08-23T18:25:23.900Z,99.90
2023-08-23T18:27:53.800Z,99.90
2023-08-23T18:30:20.503Z,99.90
2023-08-23T18:32:47.303Z,99.90
2023-08-23T18:35:14.113Z,99.90
2023-08-23T18:37:41.870Z,99.90
2023-08-23T18:40:08.516Z,99.90
2023-08-23T18:42:35.218Z,99.90
2023-08-23T18:45:01.928Z,99.90
2023-08-23T18:47:28.958Z,99.90
2023-08-23T18:49:57.756Z,99.90
2023-08-23T18:52:26.013Z,99.90
2023-08-23T18:54:52.770Z,99.90
2023-08-23T18:57:19.650Z,99.90
2023-08-23T18:59:46.337Z,99.90
2023-08-23T19:02:13.098Z,99.90
2023-08-23T19:04:39.798Z,99.90
2023-08-23T19:07:27.509Z,99.90
2023-08-23T19:09:56.685Z,99.90
2023-08-23T19:12:23.313Z,99.90
2023-08-23T19:14:50.373Z,99.90
2023-08-23T19:17:19.321Z,99.90
2023-08-23T19:19:46.031Z,99.90
2023-08-23T19:22:12.664Z,99.90
2023-08-23T19:24:39.355Z,99.90
2023-08-23T19:27:07.420Z,99.90
2023-08-23T19:29:34.086Z,99.90
2023-08-23T19:32:02.765Z,99.90
2023-08-23T19:34:31.384Z,99.90
2023-08-23T19:36:58.406Z,99.90
2023-08-23T19:39:27.815Z,99.90
2023-08-23T19:41:54.542Z,99.90
2023-08-23T19:44:23.224Z,99.90
2023-08-23T19:46:49.976Z,99.90
2023-08-23T19:49:16.617Z,99.90
2023-08-23T19:51:43.428Z,99.90
2023-08-23T19:54:10.098Z,99.90
2023-08-23T19:56:37.092Z,99.90
2023-08-23T19:59:03.774Z,99.90
2023-08-23T20:01:30.448Z,99.90
2023-08-23T20:03:57.112Z,99.90
2023-08-23T20:06:23.775Z,99.90
2023-08-23T20:08:50.443Z,99.90
2023-08-23T20:11:17.174Z,99.90
2023-08-23T20:13:44.681Z,99.90
2023-08-23T20:16:11.415Z,99.90
2023-08-23T20:18:38.397Z,99.90
2023-08-23T20:21:05.030Z,99.90
2023-08-23T20:23:32.243Z,99.90
2023-08-23T20:25:58.883Z,99.90
2023-08-23T20:28:25.738Z,99.90
2023-08-23T20:30:52.423Z,99.90
2023-08-23T20:33:19.086Z,99.90
2023-08-23T20:35:45.774Z,99.90
2023-08-23T20:38:12.475Z,99.90
2023-08-23T20:40:39.183Z,99.90
2023-08-23T20:43:05.987Z,99.90
2023-08-23T20:45:32.669Z,99.90
2023-08-23T20:47:59.546Z,99.90
2023-08-23T20:50:26.213Z,99.90
2023-08-23T20:52:52.956Z,99.90
2023-08-23T20:55:20.057Z,99.90
2023-08-23T20:57:48.387Z,99.90
2023-08-23T21:00:15.849Z,99.90
2023-08-23T21:02:42.548Z,99.90
2023-08-23T21:05:09.308Z,99.90
2023-08-23T21:07:37.095Z,99.90
2023-08-23T21:10:04.976Z,99.90
2023-08-23T21:12:31.747Z,99.90
2023-08-23T21:14:58.436Z,99.90
2023-08-23T21:17:25.563Z,99.90
2023-08-23T21:19:52.260Z,99.90
2023-08-23T21:22:18.934Z,99.90
2023-08-23T21:24:45.662Z,99.90
2023-08-23T21:27:16.184Z,99.90
2023-08-23T21:29:44.624Z,99.90
2023-08-23T21:32:11.367Z,99.90
2023-08-23T21:34:38.104Z,99.90
2023-08-23T21:37:05.074Z,99.90
2023-08-23T21:39:31.808Z,99.90
2023-08-23T21:41:59.110Z,99.90
2023-08-23T21:44:25.875Z,99.90
2023-08-23T21:46:53.970Z,99.90
2023-08-23T21:49:20.883Z,99.90
2023-08-23T21:51:47.863Z,99.90
2023-08-23T21:54:14.544Z,99.90
2023-08-23T21:56:43.780Z,99.90
2023-08-23T21:59:10.470Z,99.90
2023-08-23T22:01:37.237Z,99.90
2023-08-23T22:04:03.922Z,99.90
2023-08-23T22:06:30.849Z,99.90
2023-08-23T22:08:57.482Z,99.90
2023-08-23T22:11:24.222Z,99.90
2023-08-23T22:13:50.938Z,99.90
2023-08-23T22:16:17.630Z,99.90
2023-08-23T22:18:47.711Z,99.90
2023-08-23T22:21:14.386Z,99.90
2023-08-23T22:23:41.113Z,99.90
2023-08-23T22:26:07.809Z,99.90
2023-08-23T22:28:36.895Z,99.90
2023-08-23T22:31:03.641Z,99.90
2023-08-23T22:33:30.410Z,99.90
2023-08-23T22:35:57.793Z,99.90
2023-08-23T22:38:24.876Z,99.90
2023-08-23T22:40:52.405Z,99.90
2023-08-23T22:43:19.470Z,99.90
2023-08-23T22:45:46.365Z,99.90
2023-08-23T22:48:14.366Z,99.90
2023-08-23T22:50:41.191Z,99.90
2023-08-23T22:53:07.878Z,99.90
2023-08-23T22:55:34.670Z,99.90
2023-08-23T22:58:02.655Z,99.90
2023-08-23T23:00:29.366Z,99.90
2023-08-23T23:02:56.036Z,99.90
2023-08-23T23:05:22.795Z,99.90
2023-08-23T23:07:50.900Z,99.90
2023-08-23T23:10:17.801Z,99.90
2023-08-23T23:12:44.477Z,99.90
2023-08-23T23:15:11.746Z,99.90
2023-08-23T23:17:39.833Z,99.90
2023-08-23T23:20:16.675Z,99.90
2023-08-23T23:22:43.410Z,99.90
2023-08-23T23:25:10.209Z,99.90
2023-08-23T23:27:37.084Z,99.90
2023-08-23T23:30:04.056Z,99.90
2023-08-23T23:32:31.935Z,99.90
2023-08-23T23:34:58.736Z,99.90
2023-08-23T23:37:25.707Z,99.90
2023-08-23T23:39:54.898Z,99.90
2023-08-23T23:42:21.601Z,99.90
2023-08-23T23:44:48.353Z,99.90
2023-08-23T23:47:15.340Z,99.90
2023-08-23T23:49:41.989Z,99.90
2023-08-23T23:52:08.646Z,99.90
2023-08-23T23:54:35.331Z,99.90
2023-08-23T23:57:02.087Z,99.90
2023-08-23T23:59:28.729Z,99.90
